sensor_id;sensor_type;location;lat;lon;timestamp;temperature;humidity
40622;DHT22;26324;52.040;11.528;2023-09-12T00:00:48;21.10;69.40
40622;DHT22;26324;52.040;11.528;2023-09-12T00:03:20;21.00;69.50
40622;DHT22;26324;52.040;11.528;2023-09-12T00:05:56;20.90;70.30
40622;DHT22;26324;52.040;11.528;2023-09-12T00:08:24;20.80;70.60
40622;DHT22;26324;52.040;11.528;2023-09-12T00:11:04;20.80;71.00
40622;DHT22;26324;52.040;11.528;2023-09-12T00:13:32;21.00;70.60
40622;DHT22;26324;52.040;11.528;2023-09-12T00:15:59;21.10;70.20
40622;DHT22;26324;52.040;11.528;2023-09-12T00:18:27;21.10;70.10
40622;DHT22;26324;52.040;11.528;2023-09-12T00:20:54;21.10;69.40
40622;DHT22;26324;52.040;11.528;2023-09-12T00:23:22;21.10;69.50
40622;DHT22;26324;52.040;11.528;2023-09-12T00:25:50;21.10;69.50
40622;DHT22;26324;52.040;11.528;2023-09-12T00:28:21;21.00;69.80
40622;DHT22;26324;52.040;11.528;2023-09-12T00:30:49;20.80;70.20
40622;DHT22;26324;52.040;11.528;2023-09-12T00:33:17;20.80;70.60
40622;DHT22;26324;52.040;11.528;2023-09-12T00:35:44;20.80;69.50
40622;DHT22;26324;52.040;11.528;2023-09-12T00:38:12;20.80;69.60
40622;DHT22;26324;52.040;11.528;2023-09-12T00:40:39;20.80;69.90
40622;DHT22;26324;52.040;11.528;2023-09-12T00:43:06;20.80;71.70
40622;DHT22;26324;52.040;11.528;2023-09-12T00:45:35;20.80;72.10
40622;DHT22;26324;52.040;11.528;2023-09-12T00:48:04;21.00;72.10
40622;DHT22;26324;52.040;11.528;2023-09-12T00:50:32;21.00;71.50
40622;DHT22;26324;52.040;11.528;2023-09-12T00:53:01;21.10;70.10
40622;DHT22;26324;52.040;11.528;2023-09-12T00:55:30;21.10;70.50
40622;DHT22;26324;52.040;11.528;2023-09-12T00:57:59;21.00;70.80
40622;DHT22;26324;52.040;11.528;2023-09-12T01:00:28;21.00;70.30
40622;DHT22;26324;52.040;11.528;2023-09-12T01:02:57;20.90;70.40
40622;DHT22;26324;52.040;11.528;2023-09-12T01:05:26;20.90;70.40
40622;DHT22;26324;52.040;11.528;2023-09-12T01:07:55;21.00;70.30
40622;DHT22;26324;52.040;11.528;2023-09-12T01:10:23;21.00;70.40
40622;DHT22;26324;52.040;11.528;2023-09-12T01:12:51;21.00;70.40
40622;DHT22;26324;52.040;11.528;2023-09-12T01:15:20;20.90;70.30
40622;DHT22;26324;52.040;11.528;2023-09-12T01:17:47;20.80;70.40
40622;DHT22;26324;52.040;11.528;2023-09-12T01:20:35;20.60;70.60
40622;DHT22;26324;52.040;11.528;2023-09-12T01:26:37;20.50;71.10
40622;DHT22;26324;52.040;11.528;2023-09-12T01:29:06;20.40;72.20
40622;DHT22;26324;52.040;11.528;2023-09-12T01:31:36;20.40;71.80
40622;DHT22;26324;52.040;11.528;2023-09-12T01:34:11;20.40;72.10
40622;DHT22;26324;52.040;11.528;2023-09-12T01:36:38;20.40;72.10
40622;DHT22;26324;52.040;11.528;2023-09-12T01:39:06;20.40;72.20
40622;DHT22;26324;52.040;11.528;2023-09-12T01:41:35;20.40;71.90
40622;DHT22;26324;52.040;11.528;2023-09-12T01:44:04;20.40;71.00
40622;DHT22;26324;52.040;11.528;2023-09-12T01:46:34;20.40;70.60
40622;DHT22;26324;52.040;11.528;2023-09-12T01:49:04;20.40;70.90
40622;DHT22;26324;52.040;11.528;2023-09-12T01:51:33;20.40;71.30
40622;DHT22;26324;52.040;11.528;2023-09-12T01:54:01;20.40;71.70
40622;DHT22;26324;52.040;11.528;2023-09-12T01:56:30;20.30;72.00
40622;DHT22;26324;52.040;11.528;2023-09-12T01:58:58;20.10;72.50
40622;DHT22;26324;52.040;11.528;2023-09-12T02:01:27;20.10;73.00
40622;DHT22;26324;52.040;11.528;2023-09-12T02:03:54;20.10;73.00
40622;DHT22;26324;52.040;11.528;2023-09-12T02:06:22;20.20;72.80
40622;DHT22;26324;52.040;11.528;2023-09-12T02:08:49;20.20;72.80
40622;DHT22;26324;52.040;11.528;2023-09-12T02:11:17;20.20;71.50
40622;DHT22;26324;52.040;11.528;2023-09-12T02:13:44;20.10;71.20
40622;DHT22;26324;52.040;11.528;2023-09-12T02:16:12;20.10;71.60
40622;DHT22;26324;52.040;11.528;2023-09-12T02:18:39;20.00;72.10
40622;DHT22;26324;52.040;11.528;2023-09-12T02:21:07;20.00;74.80
40622;DHT22;26324;52.040;11.528;2023-09-12T02:23:35;19.90;76.30
40622;DHT22;26324;52.040;11.528;2023-09-12T02:26:03;19.80;76.60
40622;DHT22;26324;52.040;11.528;2023-09-12T02:28:31;19.90;75.30
40622;DHT22;26324;52.040;11.528;2023-09-12T02:30:58;20.00;75.10
40622;DHT22;26324;52.040;11.528;2023-09-12T02:33:25;20.00;75.50
40622;DHT22;26324;52.040;11.528;2023-09-12T02:35:54;20.10;75.50
40622;DHT22;26324;52.040;11.528;2023-09-12T02:38:21;20.10;75.40
40622;DHT22;26324;52.040;11.528;2023-09-12T02:40:48;20.00;75.40
40622;DHT22;26324;52.040;11.528;2023-09-12T02:43:16;20.00;75.60
40622;DHT22;26324;52.040;11.528;2023-09-12T02:45:43;20.00;75.60
40622;DHT22;26324;52.040;11.528;2023-09-12T02:48:11;20.10;75.20
40622;DHT22;26324;52.040;11.528;2023-09-12T02:50:38;20.00;75.20
40622;DHT22;26324;52.040;11.528;2023-09-12T02:53:06;20.00;75.30
40622;DHT22;26324;52.040;11.528;2023-09-12T02:55:33;20.00;75.30
40622;DHT22;26324;52.040;11.528;2023-09-12T02:58:01;20.00;75.40
40622;DHT22;26324;52.040;11.528;2023-09-12T03:00:29;19.90;75.60
40622;DHT22;26324;52.040;11.528;2023-09-12T03:02:56;20.00;75.50
40622;DHT22;26324;52.040;11.528;2023-09-12T03:05:24;20.00;74.10
40622;DHT22;26324;52.040;11.528;2023-09-12T03:07:51;19.90;74.00
40622;DHT22;26324;52.040;11.528;2023-09-12T03:10:19;19.70;75.10
40622;DHT22;26324;52.040;11.528;2023-09-12T03:12:46;19.70;75.10
40622;DHT22;26324;52.040;11.528;2023-09-12T03:15:13;19.60;76.00
40622;DHT22;26324;52.040;11.528;2023-09-12T03:17:41;19.70;75.70
40622;DHT22;26324;52.040;11.528;2023-09-12T03:20:09;19.80;74.80
40622;DHT22;26324;52.040;11.528;2023-09-12T03:22:36;19.70;75.50
40622;DHT22;26324;52.040;11.528;2023-09-12T03:25:06;19.50;75.80
40622;DHT22;26324;52.040;11.528;2023-09-12T03:27:33;19.50;76.90
40622;DHT22;26324;52.040;11.528;2023-09-12T03:30:01;19.50;77.50
40622;DHT22;26324;52.040;11.528;2023-09-12T03:32:28;19.40;78.20
40622;DHT22;26324;52.040;11.528;2023-09-12T03:34:56;19.40;78.20
40622;DHT22;26324;52.040;11.528;2023-09-12T03:37:23;19.50;78.40
40622;DHT22;26324;52.040;11.528;2023-09-12T03:39:54;19.40;78.50
40622;DHT22;26324;52.040;11.528;2023-09-12T03:42:21;19.50;78.40
40622;DHT22;26324;52.040;11.528;2023-09-12T03:44:52;19.30;78.80
40622;DHT22;26324;52.040;11.528;2023-09-12T03:47:19;19.10;79.50
40622;DHT22;26324;52.040;11.528;2023-09-12T03:49:47;19.20;79.40
40622;DHT22;26324;52.040;11.528;2023-09-12T03:52:14;19.10;79.60
40622;DHT22;26324;52.040;11.528;2023-09-12T03:54:42;19.10;79.30
40622;DHT22;26324;52.040;11.528;2023-09-12T03:57:09;19.20;79.40
40622;DHT22;26324;52.040;11.528;2023-09-12T03:59:37;19.10;79.60
40622;DHT22;26324;52.040;11.528;2023-09-12T04:02:05;19.10;79.60
40622;DHT22;26324;52.040;11.528;2023-09-12T04:04:33;19.10;79.60
40622;DHT22;26324;52.040;11.528;2023-09-12T04:07:01;19.10;79.80
40622;DHT22;26324;52.040;11.528;2023-09-12T04:09:28;19.10;79.70
40622;DHT22;26324;52.040;11.528;2023-09-12T04:11:56;19.20;79.90
40622;DHT22;26324;52.040;11.528;2023-09-12T04:14:23;19.20;80.00
40622;DHT22;26324;52.040;11.528;2023-09-12T04:16:50;19.30;79.80
40622;DHT22;26324;52.040;11.528;2023-09-12T04:19:18;19.40;79.70
40622;DHT22;26324;52.040;11.528;2023-09-12T04:21:45;19.40;80.00
40622;DHT22;26324;52.040;11.528;2023-09-12T04:24:13;19.50;79.90
40622;DHT22;26324;52.040;11.528;2023-09-12T04:26:40;19.60;79.30
40622;DHT22;26324;52.040;11.528;2023-09-12T04:29:08;19.70;78.40
40622;DHT22;26324;52.040;11.528;2023-09-12T04:31:35;19.70;78.60
40622;DHT22;26324;52.040;11.528;2023-09-12T04:34:03;19.70;78.20
40622;DHT22;26324;52.040;11.528;2023-09-12T04:36:30;19.70;78.20
40622;DHT22;26324;52.040;11.528;2023-09-12T04:38:58;19.60;79.10
40622;DHT22;26324;52.040;11.528;2023-09-12T04:41:25;19.50;79.10
40622;DHT22;26324;52.040;11.528;2023-09-12T04:43:53;19.40;79.80
40622;DHT22;26324;52.040;11.528;2023-09-12T04:46:20;19.30;80.20
40622;DHT22;26324;52.040;11.528;2023-09-12T04:48:48;19.30;80.20
40622;DHT22;26324;52.040;11.528;2023-09-12T04:51:15;19.40;79.90
40622;DHT22;26324;52.040;11.528;2023-09-12T04:53:42;19.40;79.50
40622;DHT22;26324;52.040;11.528;2023-09-12T04:56:12;19.40;79.80
40622;DHT22;26324;52.040;11.528;2023-09-12T04:58:39;19.40;79.60
40622;DHT22;26324;52.040;11.528;2023-09-12T05:01:07;19.30;80.00
40622;DHT22;26324;52.040;11.528;2023-09-12T05:03:35;19.30;79.80
40622;DHT22;26324;52.040;11.528;2023-09-12T05:06:03;19.30;80.00
40622;DHT22;26324;52.040;11.528;2023-09-12T05:08:31;19.30;80.40
40622;DHT22;26324;52.040;11.528;2023-09-12T05:10:58;19.30;80.50
40622;DHT22;26324;52.040;11.528;2023-09-12T05:13:26;19.30;80.60
40622;DHT22;26324;52.040;11.528;2023-09-12T05:15:53;19.20;80.70
40622;DHT22;26324;52.040;11.528;2023-09-12T05:18:21;19.20;80.90
40622;DHT22;26324;52.040;11.528;2023-09-12T05:20:49;19.20;80.90
40622;DHT22;26324;52.040;11.528;2023-09-12T05:23:16;19.30;80.90
40622;DHT22;26324;52.040;11.528;2023-09-12T05:25:44;19.40;80.70
40622;DHT22;26324;52.040;11.528;2023-09-12T05:28:11;19.40;81.00
40622;DHT22;26324;52.040;11.528;2023-09-12T05:30:46;19.30;80.60
40622;DHT22;26324;52.040;11.528;2023-09-12T05:33:16;19.20;80.30
40622;DHT22;26324;52.040;11.528;2023-09-12T05:35:44;19.10;80.70
40622;DHT22;26324;52.040;11.528;2023-09-12T05:38:11;18.90;81.10
40622;DHT22;26324;52.040;11.528;2023-09-12T05:40:39;18.90;81.90
40622;DHT22;26324;52.040;11.528;2023-09-12T05:43:07;18.80;82.40
40622;DHT22;26324;52.040;11.528;2023-09-12T05:45:34;18.80;82.60
40622;DHT22;26324;52.040;11.528;2023-09-12T05:48:02;18.80;83.00
40622;DHT22;26324;52.040;11.528;2023-09-12T05:50:31;18.80;83.10
40622;DHT22;26324;52.040;11.528;2023-09-12T05:52:59;18.80;83.40
40622;DHT22;26324;52.040;11.528;2023-09-12T05:55:27;19.00;83.10
40622;DHT22;26324;52.040;11.528;2023-09-12T05:57:54;19.10;82.90
40622;DHT22;26324;52.040;11.528;2023-09-12T06:00:22;19.20;82.60
40622;DHT22;26324;52.040;11.528;2023-09-12T06:02:50;19.40;82.70
40622;DHT22;26324;52.040;11.528;2023-09-12T06:05:17;19.60;82.40
40622;DHT22;26324;52.040;11.528;2023-09-12T06:07:46;19.80;81.90
40622;DHT22;26324;52.040;11.528;2023-09-12T06:10:14;20.00;81.60
40622;DHT22;26324;52.040;11.528;2023-09-12T06:12:42;20.20;80.90
40622;DHT22;26324;52.040;11.528;2023-09-12T06:15:10;20.30;80.70
40622;DHT22;26324;52.040;11.528;2023-09-12T06:17:38;20.60;80.20
40622;DHT22;26324;52.040;11.528;2023-09-12T06:20:07;20.70;79.80
40622;DHT22;26324;52.040;11.528;2023-09-12T06:22:34;20.90;79.30
40622;DHT22;26324;52.040;11.528;2023-09-12T06:25:03;21.00;78.90
40622;DHT22;26324;52.040;11.528;2023-09-12T06:27:30;21.10;77.70
40622;DHT22;26324;52.040;11.528;2023-09-12T06:29:59;21.30;77.40
40622;DHT22;26324;52.040;11.528;2023-09-12T06:32:26;21.40;77.30
40622;DHT22;26324;52.040;11.528;2023-09-12T06:34:54;21.50;76.80
40622;DHT22;26324;52.040;11.528;2023-09-12T06:37:21;21.60;76.30
40622;DHT22;26324;52.040;11.528;2023-09-12T06:39:50;21.70;76.00
40622;DHT22;26324;52.040;11.528;2023-09-12T06:42:18;21.80;75.90
40622;DHT22;26324;52.040;11.528;2023-09-12T06:44:45;21.80;76.20
40622;DHT22;26324;52.040;11.528;2023-09-12T06:47:13;21.80;76.50
40622;DHT22;26324;52.040;11.528;2023-09-12T06:49:41;21.90;75.30
40622;DHT22;26324;52.040;11.528;2023-09-12T06:52:08;22.00;75.00
40622;DHT22;26324;52.040;11.528;2023-09-12T06:54:37;22.10;74.80
40622;DHT22;26324;52.040;11.528;2023-09-12T06:57:04;22.20;73.80
40622;DHT22;26324;52.040;11.528;2023-09-12T06:59:32;22.30;73.30
40622;DHT22;26324;52.040;11.528;2023-09-12T07:02:00;22.60;72.30
40622;DHT22;26324;52.040;11.528;2023-09-12T07:04:29;22.80;71.70
40622;DHT22;26324;52.040;11.528;2023-09-12T07:06:56;22.80;71.70
40622;DHT22;26324;52.040;11.528;2023-09-12T07:09:23;23.00;71.00
40622;DHT22;26324;52.040;11.528;2023-09-12T07:11:51;23.00;71.10
40622;DHT22;26324;52.040;11.528;2023-09-12T07:14:19;23.30;70.30
40622;DHT22;26324;52.040;11.528;2023-09-12T07:16:48;23.40;69.40
40622;DHT22;26324;52.040;11.528;2023-09-12T07:19:15;23.50;69.60
40622;DHT22;26324;52.040;11.528;2023-09-12T07:21:43;23.60;68.90
40622;DHT22;26324;52.040;11.528;2023-09-12T07:24:10;23.80;66.20
40622;DHT22;26324;52.040;11.528;2023-09-12T07:26:38;23.90;66.10
40622;DHT22;26324;52.040;11.528;2023-09-12T07:29:05;24.00;65.50
40622;DHT22;26324;52.040;11.528;2023-09-12T07:31:33;24.30;63.80
40622;DHT22;26324;52.040;11.528;2023-09-12T07:34:00;24.50;62.90
40622;DHT22;26324;52.040;11.528;2023-09-12T07:36:28;24.60;62.70
40622;DHT22;26324;52.040;11.528;2023-09-12T07:38:55;24.70;62.20
40622;DHT22;26324;52.040;11.528;2023-09-12T07:41:23;24.80;61.70
40622;DHT22;26324;52.040;11.528;2023-09-12T07:43:50;24.70;62.30
40622;DHT22;26324;52.040;11.528;2023-09-12T07:46:18;24.80;61.60
40622;DHT22;26324;52.040;11.528;2023-09-12T07:48:45;25.00;60.40
40622;DHT22;26324;52.040;11.528;2023-09-12T07:51:14;25.00;62.20
40622;DHT22;26324;52.040;11.528;2023-09-12T07:53:42;25.30;59.80
40622;DHT22;26324;52.040;11.528;2023-09-12T07:56:10;25.50;59.10
40622;DHT22;26324;52.040;11.528;2023-09-12T07:58:38;25.40;59.60
40622;DHT22;26324;52.040;11.528;2023-09-12T08:01:09;25.30;60.80
40622;DHT22;26324;52.040;11.528;2023-09-12T08:03:38;25.10;61.10
40622;DHT22;26324;52.040;11.528;2023-09-12T08:06:07;25.30;60.60
40622;DHT22;26324;52.040;11.528;2023-09-12T08:08:34;25.30;60.40
40622;DHT22;26324;52.040;11.528;2023-09-12T08:11:02;25.10;60.40
40622;DHT22;26324;52.040;11.528;2023-09-12T08:13:30;24.90;61.20
40622;DHT22;26324;52.040;11.528;2023-09-12T08:15:58;24.70;61.10
40622;DHT22;26324;52.040;11.528;2023-09-12T08:18:29;24.70;60.40
40622;DHT22;26324;52.040;11.528;2023-09-12T08:20:58;24.60;60.70
40622;DHT22;26324;52.040;11.528;2023-09-12T08:23:25;24.60;61.90
40622;DHT22;26324;52.040;11.528;2023-09-12T08:25:53;24.80;59.80
40622;DHT22;26324;52.040;11.528;2023-09-12T08:28:20;24.90;59.30
40622;DHT22;26324;52.040;11.528;2023-09-12T08:30:47;25.10;58.80
40622;DHT22;26324;52.040;11.528;2023-09-12T08:33:15;25.20;59.00
40622;DHT22;26324;52.040;11.528;2023-09-12T08:35:43;25.20;57.70
40622;DHT22;26324;52.040;11.528;2023-09-12T08:38:10;25.50;57.40
40622;DHT22;26324;52.040;11.528;2023-09-12T08:40:39;25.50;59.90
40622;DHT22;26324;52.040;11.528;2023-09-12T08:43:07;25.60;60.40
40622;DHT22;26324;52.040;11.528;2023-09-12T08:45:35;25.80;59.40
40622;DHT22;26324;52.040;11.528;2023-09-12T08:48:05;26.00;57.00
40622;DHT22;26324;52.040;11.528;2023-09-12T08:50:33;26.10;57.10
40622;DHT22;26324;52.040;11.528;2023-09-12T08:53:01;26.30;52.40
40622;DHT22;26324;52.040;11.528;2023-09-12T08:55:35;26.30;54.10
40622;DHT22;26324;52.040;11.528;2023-09-12T08:58:04;26.20;53.70
40622;DHT22;26324;52.040;11.528;2023-09-12T09:00:32;26.40;55.00
40622;DHT22;26324;52.040;11.528;2023-09-12T09:03:00;26.50;53.80
40622;DHT22;26324;52.040;11.528;2023-09-12T09:05:29;26.70;53.60
40622;DHT22;26324;52.040;11.528;2023-09-12T09:07:57;26.80;51.80
40622;DHT22;26324;52.040;11.528;2023-09-12T09:10:25;26.80;52.50
40622;DHT22;26324;52.040;11.528;2023-09-12T09:13:14;27.00;53.90
40622;DHT22;26324;52.040;11.528;2023-09-12T09:15:41;27.10;53.00
40622;DHT22;26324;52.040;11.528;2023-09-12T09:18:09;27.30;52.20
40622;DHT22;26324;52.040;11.528;2023-09-12T09:20:40;27.30;52.30
40622;DHT22;26324;52.040;11.528;2023-09-12T09:23:13;27.20;53.50
40622;DHT22;26324;52.040;11.528;2023-09-12T09:25:42;27.30;53.10
40622;DHT22;26324;52.040;11.528;2023-09-12T09:28:17;27.50;53.80
40622;DHT22;26324;52.040;11.528;2023-09-12T09:30:49;27.40;51.90
40622;DHT22;26324;52.040;11.528;2023-09-12T09:33:22;27.50;52.60
40622;DHT22;26324;52.040;11.528;2023-09-12T09:35:50;27.70;51.20
40622;DHT22;26324;52.040;11.528;2023-09-12T09:38:28;27.90;54.20
40622;DHT22;26324;52.040;11.528;2023-09-12T09:40:56;28.10;52.00
40622;DHT22;26324;52.040;11.528;2023-09-12T09:43:24;28.30;52.00
40622;DHT22;26324;52.040;11.528;2023-09-12T09:45:52;28.60;49.30
40622;DHT22;26324;52.040;11.528;2023-09-12T09:48:22;28.70;49.10
40622;DHT22;26324;52.040;11.528;2023-09-12T09:50:50;28.90;49.30
40622;DHT22;26324;52.040;11.528;2023-09-12T09:53:26;29.20;49.00
40622;DHT22;26324;52.040;11.528;2023-09-12T09:56:11;29.40;49.30
40622;DHT22;26324;52.040;11.528;2023-09-12T09:58:52;29.60;48.10
40622;DHT22;26324;52.040;11.528;2023-09-12T10:01:27;29.70;47.00
40622;DHT22;26324;52.040;11.528;2023-09-12T10:03:58;29.90;46.40
40622;DHT22;26324;52.040;11.528;2023-09-12T10:06:28;30.10;45.50
40622;DHT22;26324;52.040;11.528;2023-09-12T10:08:56;30.30;46.70
40622;DHT22;26324;52.040;11.528;2023-09-12T10:11:28;30.40;45.20
40622;DHT22;26324;52.040;11.528;2023-09-12T10:13:57;30.30;44.20
40622;DHT22;26324;52.040;11.528;2023-09-12T10:16:30;30.40;44.40
40622;DHT22;26324;52.040;11.528;2023-09-12T10:19:08;30.40;43.80
40622;DHT22;26324;52.040;11.528;2023-09-12T10:21:54;30.20;44.90
40622;DHT22;26324;52.040;11.528;2023-09-12T10:24:24;30.00;43.90
40622;DHT22;26324;52.040;11.528;2023-09-12T10:26:52;29.90;45.60
40622;DHT22;26324;52.040;11.528;2023-09-12T10:29:21;29.70;45.90
40622;DHT22;26324;52.040;11.528;2023-09-12T10:31:50;29.60;46.10
40622;DHT22;26324;52.040;11.528;2023-09-12T10:34:18;29.50;46.60
40622;DHT22;26324;52.040;11.528;2023-09-12T10:36:49;29.50;45.50
40622;DHT22;26324;52.040;11.528;2023-09-12T10:39:19;29.50;46.10
40622;DHT22;26324;52.040;11.528;2023-09-12T10:41:47;29.50;44.60
40622;DHT22;26324;52.040;11.528;2023-09-12T10:44:16;29.50;46.20
40622;DHT22;26324;52.040;11.528;2023-09-12T10:46:45;29.60;46.00
40622;DHT22;26324;52.040;11.528;2023-09-12T10:49:14;29.80;45.60
40622;DHT22;26324;52.040;11.528;2023-09-12T10:51:46;29.90;46.20
40622;DHT22;26324;52.040;11.528;2023-09-12T10:54:39;30.00;45.30
40622;DHT22;26324;52.040;11.528;2023-09-12T10:57:08;30.20;46.20
40622;DHT22;26324;52.040;11.528;2023-09-12T11:02:41;30.50;44.50
40622;DHT22;26324;52.040;11.528;2023-09-12T11:07:58;31.00;44.00
40622;DHT22;26324;52.040;11.528;2023-09-12T11:10:27;30.90;44.00
40622;DHT22;26324;52.040;11.528;2023-09-12T11:12:56;31.10;46.50
40622;DHT22;26324;52.040;11.528;2023-09-12T11:15:27;31.20;42.60
40622;DHT22;26324;52.040;11.528;2023-09-12T11:18:05;31.10;43.20
40622;DHT22;26324;52.040;11.528;2023-09-12T11:21:00;31.00;42.30
40622;DHT22;26324;52.040;11.528;2023-09-12T11:23:31;30.90;41.30
40622;DHT22;26324;52.040;11.528;2023-09-12T11:26:06;30.40;41.20
40622;DHT22;26324;52.040;11.528;2023-09-12T11:28:34;29.70;42.00
40622;DHT22;26324;52.040;11.528;2023-09-12T11:31:02;29.30;44.30
40622;DHT22;26324;52.040;11.528;2023-09-12T11:33:31;29.40;44.60
40622;DHT22;26324;52.040;11.528;2023-09-12T11:35:59;29.60;45.90
40622;DHT22;26324;52.040;11.528;2023-09-12T11:38:31;30.00;44.40
40622;DHT22;26324;52.040;11.528;2023-09-12T11:40:59;30.50;42.90
40622;DHT22;26324;52.040;11.528;2023-09-12T11:43:28;31.00;40.90
40622;DHT22;26324;52.040;11.528;2023-09-12T11:45:57;31.30;42.50
40622;DHT22;26324;52.040;11.528;2023-09-12T11:48:25;31.10;40.30
40622;DHT22;26324;52.040;11.528;2023-09-12T11:50:54;31.20;40.50
40622;DHT22;26324;52.040;11.528;2023-09-12T11:53:24;31.10;39.10
40622;DHT22;26324;52.040;11.528;2023-09-12T11:55:55;31.10;39.30
40622;DHT22;26324;52.040;11.528;2023-09-12T11:58:24;31.10;41.60
40622;DHT22;26324;52.040;11.528;2023-09-12T12:00:54;30.80;42.60
40622;DHT22;26324;52.040;11.528;2023-09-12T12:03:24;30.80;43.20
40622;DHT22;26324;52.040;11.528;2023-09-12T12:05:54;30.90;42.50
40622;DHT22;26324;52.040;11.528;2023-09-12T12:08:22;31.00;42.40
40622;DHT22;26324;52.040;11.528;2023-09-12T12:10:53;31.00;41.30
40622;DHT22;26324;52.040;11.528;2023-09-12T12:13:22;31.00;42.30
40622;DHT22;26324;52.040;11.528;2023-09-12T12:16:17;31.30;41.30
40622;DHT22;26324;52.040;11.528;2023-09-12T12:18:46;31.70;38.70
40622;DHT22;26324;52.040;11.528;2023-09-12T12:21:14;31.90;37.80
40622;DHT22;26324;52.040;11.528;2023-09-12T12:23:42;31.90;38.30
40622;DHT22;26324;52.040;11.528;2023-09-12T12:26:09;32.10;37.50
40622;DHT22;26324;52.040;11.528;2023-09-12T12:28:38;32.20;38.80
40622;DHT22;26324;52.040;11.528;2023-09-12T12:31:05;32.30;38.50
40622;DHT22;26324;52.040;11.528;2023-09-12T12:33:33;32.30;38.70
40622;DHT22;26324;52.040;11.528;2023-09-12T12:36:21;32.20;37.50
40622;DHT22;26324;52.040;11.528;2023-09-12T12:38:49;32.20;39.30
40622;DHT22;26324;52.040;11.528;2023-09-12T12:43:52;32.00;40.20
40622;DHT22;26324;52.040;11.528;2023-09-12T12:46:20;32.10;40.10
40622;DHT22;26324;52.040;11.528;2023-09-12T12:48:49;31.90;43.70
40622;DHT22;26324;52.040;11.528;2023-09-12T12:51:19;32.10;45.40
40622;DHT22;26324;52.040;11.528;2023-09-12T12:54:05;32.10;43.90
40622;DHT22;26324;52.040;11.528;2023-09-12T12:56:33;32.50;41.30
40622;DHT22;26324;52.040;11.528;2023-09-12T12:59:03;32.00;41.90
40622;DHT22;26324;52.040;11.528;2023-09-12T13:01:34;31.50;42.60
40622;DHT22;26324;52.040;11.528;2023-09-12T13:04:05;31.20;43.70
40622;DHT22;26324;52.040;11.528;2023-09-12T13:06:33;31.10;44.60
40622;DHT22;26324;52.040;11.528;2023-09-12T13:09:04;31.40;43.40
40622;DHT22;26324;52.040;11.528;2023-09-12T13:11:33;31.90;42.20
40622;DHT22;26324;52.040;11.528;2023-09-12T13:14:04;32.50;40.50
40622;DHT22;26324;52.040;11.528;2023-09-12T13:16:38;32.90;41.00
40622;DHT22;26324;52.040;11.528;2023-09-12T13:19:08;33.10;38.50
40622;DHT22;26324;52.040;11.528;2023-09-12T13:21:38;33.40;40.00
40622;DHT22;26324;52.040;11.528;2023-09-12T13:24:06;34.00;38.90
40622;DHT22;26324;52.040;11.528;2023-09-12T13:26:33;34.50;36.70
40622;DHT22;26324;52.040;11.528;2023-09-12T13:29:01;35.10;36.10
40622;DHT22;26324;52.040;11.528;2023-09-12T13:31:28;35.40;35.80
40622;DHT22;26324;52.040;11.528;2023-09-12T13:33:56;35.90;35.70
40622;DHT22;26324;52.040;11.528;2023-09-12T13:36:23;36.40;34.70
40622;DHT22;26324;52.040;11.528;2023-09-12T13:38:51;37.00;32.90
40622;DHT22;26324;52.040;11.528;2023-09-12T13:41:18;37.30;31.50
40622;DHT22;26324;52.040;11.528;2023-09-12T13:43:46;37.80;29.80
40622;DHT22;26324;52.040;11.528;2023-09-12T13:46:14;38.30;28.10
40622;DHT22;26324;52.040;11.528;2023-09-12T13:48:41;38.00;28.40
40622;DHT22;26324;52.040;11.528;2023-09-12T13:51:09;38.30;29.50
40622;DHT22;26324;52.040;11.528;2023-09-12T13:53:36;38.80;28.80
40622;DHT22;26324;52.040;11.528;2023-09-12T13:56:04;39.40;27.80
40622;DHT22;26324;52.040;11.528;2023-09-12T13:58:33;39.90;27.20
40622;DHT22;26324;52.040;11.528;2023-09-12T14:01:12;40.10;25.50
40622;DHT22;26324;52.040;11.528;2023-09-12T14:03:57;40.10;26.30
40622;DHT22;26324;52.040;11.528;2023-09-12T14:06:25;40.20;25.60
40622;DHT22;26324;52.040;11.528;2023-09-12T14:08:53;40.20;26.90
40622;DHT22;26324;52.040;11.528;2023-09-12T14:11:21;40.30;26.60
40622;DHT22;26324;52.040;11.528;2023-09-12T14:14:01;40.60;26.40
40622;DHT22;26324;52.040;11.528;2023-09-12T14:16:41;40.80;25.80
40622;DHT22;26324;52.040;11.528;2023-09-12T14:19:13;41.10;26.40
40622;DHT22;26324;52.040;11.528;2023-09-12T14:21:42;41.20;26.10
40622;DHT22;26324;52.040;11.528;2023-09-12T14:24:12;41.20;26.10
40622;DHT22;26324;52.040;11.528;2023-09-12T14:26:40;40.70;26.50
40622;DHT22;26324;52.040;11.528;2023-09-12T14:29:09;40.50;26.40
40622;DHT22;26324;52.040;11.528;2023-09-12T14:31:38;40.20;26.60
40622;DHT22;26324;52.040;11.528;2023-09-12T14:34:06;40.40;26.60
40622;DHT22;26324;52.040;11.528;2023-09-12T14:36:35;40.60;25.90
40622;DHT22;26324;52.040;11.528;2023-09-12T14:39:03;40.80;24.50
40622;DHT22;26324;52.040;11.528;2023-09-12T14:41:30;40.70;25.10
40622;DHT22;26324;52.040;11.528;2023-09-12T14:43:58;40.00;25.40
40622;DHT22;26324;52.040;11.528;2023-09-12T14:46:25;38.90;27.60
40622;DHT22;26324;52.040;11.528;2023-09-12T14:48:53;37.90;29.70
40622;DHT22;26324;52.040;11.528;2023-09-12T14:51:28;36.80;29.90
40622;DHT22;26324;52.040;11.528;2023-09-12T14:54:02;35.90;31.50
40622;DHT22;26324;52.040;11.528;2023-09-12T14:56:34;35.10;33.20
40622;DHT22;26324;52.040;11.528;2023-09-12T14:59:03;34.60;33.00
40622;DHT22;26324;52.040;11.528;2023-09-12T15:01:31;33.90;34.80
40622;DHT22;26324;52.040;11.528;2023-09-12T15:03:59;33.40;36.10
40622;DHT22;26324;52.040;11.528;2023-09-12T15:06:28;32.90;37.90
40622;DHT22;26324;52.040;11.528;2023-09-12T15:09:00;32.50;37.50
40622;DHT22;26324;52.040;11.528;2023-09-12T15:11:27;32.20;38.80
40622;DHT22;26324;52.040;11.528;2023-09-12T15:13:55;31.80;39.00
40622;DHT22;26324;52.040;11.528;2023-09-12T15:16:22;31.70;38.90
40622;DHT22;26324;52.040;11.528;2023-09-12T15:18:50;31.90;39.70
40622;DHT22;26324;52.040;11.528;2023-09-12T15:21:18;32.50;38.60
40622;DHT22;26324;52.040;11.528;2023-09-12T15:23:45;33.50;38.30
40622;DHT22;26324;52.040;11.528;2023-09-12T15:26:13;34.60;35.10
40622;DHT22;26324;52.040;11.528;2023-09-12T15:28:40;35.70;33.70
40622;DHT22;26324;52.040;11.528;2023-09-12T15:31:08;36.50;32.30
40622;DHT22;26324;52.040;11.528;2023-09-12T15:33:35;36.90;31.70
40622;DHT22;26324;52.040;11.528;2023-09-12T15:36:03;37.00;31.50
40622;DHT22;26324;52.040;11.528;2023-09-12T15:38:30;37.00;31.60